Terminal Aerodrome Forecast
Issued by NWS

Home | Current Version | Previous Version | Text Only | Print | Product List | Glossary On
Versions: 1 2 3 4 5 6 7 8 9 10 11 12 13 14 15
000
FTUS46 KPDT 030245 AAB
TAFYKM
TAF AMD
KYKM 030245Z 0303/0324 35008G15KT P6SM FEW100 SCT250
     FM030900 33008G15KT P6SM FEW150 SCT250
     FM031200 29008KT P6SM SCT120 BKN150 OVC180
     FM032000 33007KT P6SM SCT120 BKN180=

USA.gov is the U.S. government's official web portal to all federal, state and local government web resources and services.